createdAt,value
2023-01-28T00:02:16.083Z,17.52
2023-01-28T00:04:42.468Z,17.42
2023-01-28T00:07:09.357Z,17.32
2023-01-28T00:09:36.172Z,17.21
2023-01-28T00:12:02.433Z,17.13
2023-01-28T00:14:28.641Z,17.04
2023-01-28T00:16:54.860Z,16.96
2023-01-28T00:19:21.133Z,16.86
2023-01-28T00:21:48.151Z,16.77
2023-01-28T00:24:14.409Z,16.69
2023-01-28T00:26:40.594Z,16.59
2023-01-28T00:29:07.022Z,16.51
2023-01-28T00:31:33.261Z,16.43
2023-01-28T00:33:59.582Z,16.37
2023-01-28T00:36:26.224Z,16.27
2023-01-28T00:38:52.446Z,16.20
2023-01-28T00:41:19.369Z,16.12
2023-01-28T00:43:45.528Z,16.04
2023-01-28T00:46:11.775Z,15.96
2023-01-28T00:48:38.200Z,15.91
2023-01-28T00:51:04.390Z,15.83
2023-01-28T00:53:30.608Z,15.78
2023-01-28T00:55:56.835Z,15.72
2023-01-28T00:58:23.289Z,15.66
2023-01-28T01:00:50.492Z,15.58
2023-01-28T01:03:16.691Z,15.53
2023-01-28T01:05:42.919Z,15.47
2023-01-28T01:08:09.284Z,15.42
2023-01-28T01:10:36.337Z,15.37
2023-01-28T01:13:02.575Z,15.31
2023-01-28T01:15:28.860Z,15.26
2023-01-28T01:17:55.098Z,15.20
2023-01-28T01:20:21.264Z,15.15
2023-01-28T01:22:47.704Z,15.10
2023-01-28T01:25:14.676Z,15.05
2023-01-28T01:27:41.540Z,15.00
2023-01-28T01:30:07.740Z,14.95
2023-01-28T01:32:33.948Z,14.90
2023-01-28T01:35:00.881Z,14.85
2023-01-28T01:37:27.143Z,14.80
2023-01-28T01:39:54.353Z,14.74
2023-01-28T01:42:20.591Z,14.69
2023-01-28T01:44:47.046Z,14.62
2023-01-28T01:47:13.375Z,14.58
2023-01-28T01:49:39.568Z,14.53
2023-01-28T01:52:05.924Z,14.48
2023-01-28T01:54:32.109Z,14.43
2023-01-28T01:56:58.949Z,14.38
2023-01-28T01:59:25.193Z,14.33
2023-01-28T02:01:51.953Z,14.28
2023-01-28T02:04:18.262Z,14.24
2023-01-28T02:06:45.674Z,14.20
2023-01-28T02:09:11.929Z,14.15
2023-01-28T02:11:39.138Z,14.11
2023-01-28T02:14:06.177Z,14.08
2023-01-28T02:16:33.070Z,14.03
2023-01-28T02:18:59.390Z,13.99
2023-01-28T02:21:25.598Z,13.96
2023-01-28T02:23:52.407Z,13.91
2023-01-28T02:26:18.665Z,13.88
2023-01-28T02:28:44.875Z,13.84
2023-01-28T02:31:11.106Z,13.81
2023-01-28T02:33:38.008Z,13.77
2023-01-28T02:36:05.534Z,13.73
2023-01-28T02:38:31.794Z,13.69
2023-01-28T02:40:58.129Z,13.66
2023-01-28T02:43:24.385Z,13.63
2023-01-28T02:45:50.653Z,13.57
2023-01-28T02:48:17.751Z,13.55
2023-01-28T02:50:44.001Z,13.50
2023-01-28T02:53:10.175Z,13.47
2023-01-28T02:55:36.409Z,13.44
2023-01-28T02:58:02.603Z,13.41
2023-01-28T03:00:28.892Z,13.37
2023-01-28T03:02:55.183Z,13.34
2023-01-28T03:05:21.418Z,13.29
2023-01-28T03:07:47.575Z,13.27
2023-01-28T03:10:16.030Z,13.24
2023-01-28T03:12:42.661Z,13.21
2023-01-28T03:15:08.823Z,13.18
2023-01-28T03:17:35.218Z,13.15
2023-01-28T03:20:01.422Z,13.12
2023-01-28T03:22:27.680Z,13.08
2023-01-28T03:24:53.887Z,13.06
2023-01-28T03:27:20.859Z,13.03
2023-01-28T03:29:47.113Z,13.00
2023-01-28T03:32:13.350Z,12.99
2023-01-28T03:34:39.626Z,12.95
2023-01-28T03:37:07.281Z,12.91
2023-01-28T03:39:33.779Z,12.88
2023-01-28T03:41:59.993Z,12.85
2023-01-28T03:44:26.174Z,12.83
2023-01-28T03:46:52.808Z,12.81
2023-01-28T03:49:19.029Z,12.78
2023-01-28T03:51:45.711Z,12.74
2023-01-28T03:54:12.403Z,12.72
2023-01-28T03:56:39.027Z,12.71
2023-01-28T03:59:05.204Z,12.67
2023-01-28T04:01:31.487Z,12.66
2023-01-28T04:03:58.060Z,12.63
2023-01-28T04:06:24.308Z,12.61
2023-01-28T04:08:50.967Z,12.59
2023-01-28T04:11:17.228Z,12.57
2023-01-28T04:13:43.530Z,12.55
2023-01-28T04:16:09.730Z,12.52
2023-01-28T04:18:36.279Z,12.50
2023-01-28T04:21:02.510Z,12.47
2023-01-28T04:23:28.709Z,12.44
2023-01-28T04:25:54.872Z,12.42
2023-01-28T04:28:21.060Z,12.40
2023-01-28T04:30:48.181Z,12.37
2023-01-28T04:33:14.409Z,12.36
2023-01-28T04:35:41.088Z,12.33
2023-01-28T04:38:07.268Z,12.31
2023-01-28T04:40:33.563Z,12.30
2023-01-28T04:42:59.828Z,12.27
2023-01-28T04:45:26.052Z,12.26
2023-01-28T04:47:53.476Z,12.23
2023-01-28T04:50:19.829Z,12.21
2023-01-28T04:52:46.141Z,12.18
2023-01-28T04:55:12.892Z,12.16
2023-01-28T04:57:39.293Z,12.13
2023-01-28T05:00:05.626Z,12.12
2023-01-28T05:02:31.858Z,12.08
2023-01-28T05:04:58.110Z,12.06
2023-01-28T05:07:24.468Z,12.04
2023-01-28T05:09:51.208Z,12.02
2023-01-28T05:12:22.663Z,11.99
2023-01-28T05:14:48.875Z,11.97
2023-01-28T05:17:15.072Z,11.95
2023-01-28T05:19:41.519Z,11.93
2023-01-28T05:22:07.685Z,11.92
2023-01-28T05:24:34.031Z,11.90
2023-01-28T05:27:01.074Z,11.88
2023-01-28T05:29:27.865Z,11.87
2023-01-28T05:31:54.095Z,11.85
2023-01-28T05:34:20.373Z,11.83
2023-01-28T05:36:46.580Z,11.81
2023-01-28T05:39:12.953Z,11.79
2023-01-28T05:41:39.116Z,11.77
2023-01-28T05:44:05.285Z,11.76
2023-01-28T05:46:31.588Z,11.74
2023-01-28T05:48:58.786Z,11.71
2023-01-28T05:51:24.998Z,11.69
2023-01-28T05:53:52.302Z,11.67
2023-01-28T05:56:18.535Z,11.63
2023-01-28T05:58:44.768Z,11.62
2023-01-28T06:01:11.066Z,11.59
2023-01-28T06:03:37.256Z,11.58
2023-01-28T06:06:03.513Z,11.56
2023-01-28T06:08:29.689Z,11.53
2023-01-28T06:10:55.939Z,11.51
2023-01-28T06:13:22.150Z,11.49
2023-01-28T06:15:48.445Z,11.48
2023-01-28T06:18:14.641Z,11.44
2023-01-28T06:20:41.711Z,11.42
2023-01-28T06:23:07.869Z,11.41
2023-01-28T06:25:34.123Z,11.38
2023-01-28T06:28:00.381Z,11.35
2023-01-28T06:30:26.559Z,11.34
2023-01-28T06:32:52.738Z,11.32
2023-01-28T06:35:19.478Z,11.30
2023-01-28T06:37:46.143Z,11.29
2023-01-28T06:40:12.767Z,11.27
2023-01-28T06:42:41.657Z,11.25
2023-01-28T06:45:07.860Z,11.23
2023-01-28T06:47:34.992Z,11.22
2023-01-28T06:50:01.181Z,11.21
2023-01-28T06:52:30.015Z,11.19
2023-01-28T06:54:56.824Z,11.17
2023-01-28T06:57:23.067Z,11.15
2023-01-28T06:59:49.232Z,11.13
2023-01-28T07:02:15.894Z,11.13
2023-01-28T07:04:42.450Z,11.11
2023-01-28T07:07:08.755Z,11.07
2023-01-28T07:09:35.103Z,11.06
2023-01-28T07:12:01.322Z,11.05
2023-01-28T07:14:27.517Z,11.03
2023-01-28T07:16:53.792Z,11.02
2023-01-28T07:19:19.993Z,11.00
2023-01-28T07:21:46.814Z,10.97
2023-01-28T07:24:13.168Z,10.97
2023-01-28T07:26:39.995Z,10.95
2023-01-28T07:29:06.207Z,10.94
2023-01-28T07:31:33.252Z,10.92
2023-01-28T07:34:00.101Z,10.91
2023-01-28T07:36:26.320Z,10.89
2023-01-28T07:38:52.629Z,10.88
2023-01-28T07:41:18.854Z,10.86
2023-01-28T07:46:35.576Z,10.85
2023-01-28T07:49:01.846Z,10.86
2023-01-28T07:51:29.500Z,10.84
2023-01-28T07:53:56.393Z,10.94
2023-01-28T07:56:23.333Z,11.40
2023-01-28T07:58:49.698Z,11.91
2023-01-28T08:01:15.935Z,12.35
2023-01-28T08:03:42.266Z,12.72
2023-01-28T08:06:08.792Z,13.06
2023-01-28T08:08:35.054Z,13.38
2023-01-28T08:11:01.269Z,13.70
2023-01-28T08:13:28.237Z,13.96
2023-01-28T08:15:55.197Z,14.16
2023-01-28T08:18:21.921Z,14.37
2023-01-28T08:20:48.286Z,14.57
2023-01-28T08:23:17.665Z,14.74
2023-01-28T08:25:44.156Z,14.89
2023-01-28T08:28:11.218Z,15.02
2023-01-28T08:30:37.444Z,15.13
2023-01-28T08:33:04.786Z,15.19
2023-01-28T08:35:30.996Z,15.28
2023-01-28T08:37:57.343Z,15.40
2023-01-28T08:40:26.555Z,15.55
2023-01-28T08:45:37.234Z,15.81
2023-01-28T08:48:03.720Z,15.93
2023-01-28T08:50:29.929Z,16.07
2023-01-28T08:55:40.847Z,16.35
2023-01-28T08:58:07.037Z,16.49
2023-01-28T09:00:33.367Z,16.65
2023-01-28T09:02:59.618Z,16.81
2023-01-28T09:05:25.873Z,16.93
2023-01-28T09:07:52.057Z,16.99
2023-01-28T09:10:18.486Z,17.10
2023-01-28T09:12:44.883Z,17.19
2023-01-28T09:15:11.077Z,17.21
2023-01-28T09:17:37.460Z,17.18
2023-01-28T09:20:03.854Z,17.12
2023-01-28T09:22:30.262Z,17.12
2023-01-28T09:24:56.493Z,17.12
2023-01-28T09:27:22.677Z,17.12
2023-01-28T09:29:48.877Z,17.12
2023-01-28T09:32:15.297Z,17.11
2023-01-28T09:34:41.519Z,17.07
2023-01-28T09:37:07.925Z,17.06
2023-01-28T09:39:34.408Z,17.06
2023-01-28T09:42:00.748Z,17.03
2023-01-28T09:44:29.023Z,17.01
2023-01-28T09:46:56.204Z,16.96
2023-01-28T09:49:22.489Z,16.93
2023-01-28T09:51:48.844Z,16.92
2023-01-28T09:54:15.552Z,16.89
2023-01-28T09:56:41.803Z,16.86
2023-01-28T09:59:08.250Z,16.85
2023-01-28T10:01:34.785Z,16.84
2023-01-28T10:04:01.037Z,16.82
2023-01-28T10:06:27.255Z,16.81
2023-01-28T10:08:53.643Z,16.80
2023-01-28T10:11:20.675Z,16.80
2023-01-28T10:13:47.558Z,16.83
2023-01-28T10:16:13.754Z,16.81
2023-01-28T10:18:41.381Z,16.84
2023-01-28T10:21:07.905Z,16.90
2023-01-28T10:23:34.166Z,17.00
2023-01-28T10:26:00.477Z,17.12
2023-01-28T10:28:26.656Z,17.24
2023-01-28T10:30:52.870Z,17.39
2023-01-28T10:33:20.300Z,17.52
2023-01-28T10:35:46.547Z,17.64
2023-01-28T10:38:12.816Z,17.77
2023-01-28T10:40:40.299Z,17.84
2023-01-28T10:43:06.498Z,17.89
2023-01-28T10:45:32.733Z,17.92
2023-01-28T10:47:59.055Z,17.91
2023-01-28T10:50:25.250Z,17.91
2023-01-28T10:52:53.547Z,17.86
2023-01-28T10:55:20.168Z,17.86
2023-01-28T10:57:46.368Z,17.84
2023-01-28T11:00:12.709Z,17.84
2023-01-28T11:02:39.060Z,17.82
2023-01-28T11:05:05.305Z,17.78
2023-01-28T11:07:32.359Z,17.73
2023-01-28T11:09:58.644Z,17.72
2023-01-28T11:12:25.096Z,17.71
2023-01-28T11:14:51.567Z,17.71
2023-01-28T11:17:17.913Z,17.67
2023-01-28T11:19:44.125Z,17.66
2023-01-28T11:22:10.578Z,17.64
2023-01-28T11:24:36.904Z,17.61
2023-01-28T11:27:03.812Z,17.58
2023-01-28T11:29:30.019Z,17.57
2023-01-28T11:31:57.029Z,17.54
2023-01-28T11:34:23.332Z,17.52
2023-01-28T11:36:50.269Z,17.51
2023-01-28T11:39:16.607Z,17.49
2023-01-28T11:41:43.008Z,17.47
2023-01-28T11:44:10.936Z,17.46
2023-01-28T11:46:37.292Z,17.44
2023-01-28T11:49:03.485Z,17.43
2023-01-28T11:51:29.903Z,17.42
2023-01-28T11:53:56.158Z,17.42
2023-01-28T11:56:22.980Z,17.40
2023-01-28T11:58:58.308Z,17.38
2023-01-28T12:01:25.298Z,17.38
2023-01-28T12:03:51.531Z,17.42
2023-01-28T12:09:33.640Z,17.46
2023-01-28T12:12:04.127Z,17.51
2023-01-28T12:14:31.088Z,17.61
2023-01-28T12:16:58.210Z,17.70
2023-01-28T12:19:24.541Z,17.81
2023-01-28T12:21:53.084Z,17.91
2023-01-28T12:24:19.374Z,18.02
2023-01-28T12:26:46.188Z,18.11
2023-01-28T12:29:13.107Z,18.20
2023-01-28T12:31:39.443Z,18.28
2023-01-28T12:34:05.699Z,18.33
2023-01-28T12:36:32.118Z,18.37
2023-01-28T12:38:58.319Z,18.42
2023-01-28T12:41:24.648Z,18.46
2023-01-28T12:43:52.028Z,18.50
2023-01-28T12:46:18.326Z,18.51
2023-01-28T12:48:44.801Z,18.51
2023-01-28T12:51:13.092Z,18.50
2023-01-28T12:53:39.319Z,18.47
2023-01-28T12:56:05.886Z,18.45
2023-01-28T12:58:32.303Z,18.41
2023-01-28T13:00:58.513Z,18.38
2023-01-28T13:03:24.951Z,18.36
2023-01-28T13:05:51.196Z,18.33
2023-01-28T13:08:17.481Z,18.29
2023-01-28T13:10:44.362Z,18.26
2023-01-28T13:13:10.814Z,18.22
2023-01-28T13:15:37.564Z,18.20
2023-01-28T13:18:04.158Z,18.18
2023-01-28T13:20:30.808Z,18.15
2023-01-28T13:22:57.455Z,18.13
2023-01-28T13:25:23.765Z,18.11
2023-01-28T13:27:50.013Z,18.09
2023-01-28T13:30:16.217Z,18.06
2023-01-28T13:32:42.404Z,18.03
2023-01-28T13:35:09.256Z,18.01
2023-01-28T13:37:35.461Z,17.98
2023-01-28T13:40:01.846Z,17.96
2023-01-28T13:42:28.228Z,17.95
2023-01-28T13:44:54.609Z,17.93
2023-01-28T13:47:20.828Z,17.91
2023-01-28T13:49:47.163Z,17.92
2023-01-28T13:52:13.353Z,17.97
2023-01-28T13:54:42.475Z,18.00
2023-01-28T13:57:09.003Z,18.03
2023-01-28T13:59:35.202Z,18.05
2023-01-28T14:02:01.510Z,18.02
2023-01-28T14:04:28.268Z,18.02
2023-01-28T14:06:55.205Z,18.01
2023-01-28T14:09:21.519Z,17.99
2023-01-28T14:11:52.625Z,17.97
2023-01-28T14:14:18.961Z,17.94
2023-01-28T14:16:45.264Z,17.90
2023-01-28T14:19:11.462Z,17.86
2023-01-28T14:21:38.232Z,17.85
2023-01-28T14:24:04.485Z,17.85
2023-01-28T14:26:30.942Z,17.85
2023-01-28T14:28:57.186Z,17.81
2023-01-28T14:31:23.770Z,17.79
2023-01-28T14:33:49.990Z,17.78
2023-01-28T14:36:16.242Z,17.77
2023-01-28T14:38:43.078Z,17.76
2023-01-28T14:41:09.304Z,17.75
2023-01-28T14:43:36.362Z,17.73
2023-01-28T14:46:04.131Z,17.72
2023-01-28T14:48:31.250Z,17.71
2023-01-28T14:50:57.426Z,17.72
2023-01-28T14:53:23.823Z,17.70
2023-01-28T14:55:50.074Z,17.68
2023-01-28T14:58:16.295Z,17.67
2023-01-28T15:00:42.585Z,17.69
2023-01-28T15:03:23.216Z,17.70
2023-01-28T15:05:51.022Z,17.76
2023-01-28T15:08:21.246Z,17.86
2023-01-28T15:10:47.577Z,17.98
2023-01-28T15:13:13.806Z,18.07
2023-01-28T15:15:40.001Z,18.19
2023-01-28T15:18:06.219Z,18.29
2023-01-28T15:20:32.546Z,18.37
2023-01-28T15:22:59.088Z,18.44
2023-01-28T15:25:25.822Z,18.49
2023-01-28T15:27:52.024Z,18.53
2023-01-28T15:30:18.721Z,18.54
2023-01-28T15:32:45.720Z,18.52
2023-01-28T15:35:12.576Z,18.49
2023-01-28T15:37:38.886Z,18.46
2023-01-28T15:40:05.213Z,18.44
2023-01-28T15:42:31.456Z,18.39
2023-01-28T15:44:57.788Z,18.35
2023-01-28T15:47:24.102Z,18.29
2023-01-28T15:49:50.912Z,18.24
2023-01-28T15:52:17.304Z,18.20
2023-01-28T15:54:43.639Z,18.18
2023-01-28T15:57:09.817Z,18.14
2023-01-28T15:59:36.404Z,18.09
2023-01-28T16:02:03.255Z,18.05
2023-01-28T16:04:29.507Z,17.99
2023-01-28T16:06:55.710Z,17.96
2023-01-28T16:09:22.492Z,17.92
2023-01-28T16:11:48.882Z,17.87
2023-01-28T16:14:15.052Z,17.83
2023-01-28T16:16:41.353Z,17.80
2023-01-28T16:19:07.581Z,17.76
2023-01-28T16:21:33.788Z,17.73
2023-01-28T16:24:00.737Z,17.72
2023-01-28T16:26:27.683Z,17.71
2023-01-28T16:28:55.011Z,17.71
2023-01-28T16:31:21.377Z,17.69
2023-01-28T16:33:48.551Z,17.69
2023-01-28T16:36:14.794Z,17.68
2023-01-28T16:38:40.982Z,17.67
2023-01-28T16:41:07.184Z,17.67
2023-01-28T16:45:59.575Z,17.66
2023-01-28T16:48:25.776Z,17.66
2023-01-28T16:50:52.000Z,17.66
2023-01-28T16:53:18.556Z,17.66
2023-01-28T16:55:45.471Z,17.65
2023-01-28T16:58:11.660Z,17.64
2023-01-28T17:00:37.957Z,17.61
2023-01-28T17:03:04.221Z,17.60
2023-01-28T17:05:30.657Z,17.58
2023-01-28T17:07:56.875Z,17.56
2023-01-28T17:10:24.582Z,17.55
2023-01-28T17:12:50.891Z,17.54
2023-01-28T17:15:18.453Z,17.54
2023-01-28T17:17:44.916Z,17.52
2023-01-28T17:20:11.140Z,17.51
2023-01-28T17:22:38.166Z,17.49
2023-01-28T17:25:04.542Z,17.48
2023-01-28T17:27:31.641Z,17.49
2023-01-28T17:29:57.880Z,17.44
2023-01-28T17:32:24.145Z,17.43
2023-01-28T17:34:50.452Z,17.48
2023-01-28T17:37:16.621Z,17.60
2023-01-28T17:39:42.831Z,17.73
2023-01-28T17:42:09.099Z,17.89
2023-01-28T17:44:35.323Z,18.05
2023-01-28T17:47:01.536Z,18.15
2023-01-28T17:49:29.194Z,18.21
2023-01-28T17:51:55.468Z,18.28
2023-01-28T17:54:25.122Z,18.31
2023-01-28T17:56:51.639Z,18.29
2023-01-28T17:59:17.838Z,18.26
2023-01-28T18:01:44.014Z,18.23
2023-01-28T18:04:10.514Z,18.21
2023-01-28T18:06:36.760Z,18.16
2023-01-28T18:09:02.996Z,18.11
2023-01-28T18:11:29.290Z,18.13
2023-01-28T18:13:56.227Z,18.13
2023-01-28T18:16:23.136Z,18.31
2023-01-28T18:18:49.505Z,18.39
2023-01-28T18:21:15.961Z,18.47
2023-01-28T18:23:43.950Z,18.56
2023-01-28T18:26:10.589Z,18.65
2023-01-28T18:28:36.809Z,18.72
2023-01-28T18:31:03.107Z,18.81
2023-01-28T18:33:29.620Z,18.88
2023-01-28T18:35:55.819Z,18.93
2023-01-28T18:38:22.012Z,19.01
2023-01-28T18:40:48.217Z,19.08
2023-01-28T18:43:14.642Z,19.13
2023-01-28T18:45:40.967Z,19.16
2023-01-28T18:48:07.251Z,19.20
2023-01-28T18:50:34.089Z,19.25
2023-01-28T18:53:00.477Z,19.29
2023-01-28T18:55:28.422Z,19.31
2023-01-28T18:57:54.652Z,19.30
2023-01-28T19:00:21.132Z,19.29
2023-01-28T19:02:47.341Z,19.26
2023-01-28T19:05:14.155Z,19.21
2023-01-28T19:07:41.185Z,19.15
2023-01-28T19:10:07.959Z,19.08
2023-01-28T19:12:36.317Z,19.00
2023-01-28T19:15:02.531Z,18.92
2023-01-28T19:17:29.509Z,18.86
2023-01-28T19:19:55.743Z,18.83
2023-01-28T19:22:23.027Z,18.80
2023-01-28T19:24:53.384Z,18.76
2023-01-28T19:27:19.589Z,18.75
2023-01-28T19:29:45.791Z,18.72
2023-01-28T19:32:11.971Z,18.68
2023-01-28T19:34:38.169Z,18.63
2023-01-28T19:37:04.470Z,18.58
2023-01-28T19:39:32.444Z,18.52
2023-01-28T19:41:59.550Z,18.47
2023-01-28T19:44:25.769Z,18.45
2023-01-28T19:46:52.920Z,18.42
2023-01-28T19:49:19.167Z,18.37
2023-01-28T19:51:45.399Z,18.38
2023-01-28T19:54:11.691Z,18.42
2023-01-28T19:56:38.933Z,18.50
2023-01-28T19:59:05.111Z,18.56
2023-01-28T20:01:31.404Z,18.65
2023-01-28T20:03:57.793Z,18.71
2023-01-28T20:06:25.782Z,18.79
2023-01-28T20:08:51.959Z,18.88
2023-01-28T20:11:18.823Z,18.96
2023-01-28T20:13:45.031Z,19.02
2023-01-28T20:16:11.512Z,19.08
2023-01-28T20:18:37.815Z,19.13
2023-01-28T20:21:04.066Z,19.15
2023-01-28T20:23:30.256Z,19.17
2023-01-28T20:25:56.471Z,19.15
2023-01-28T20:28:22.741Z,19.14
2023-01-28T20:30:49.018Z,19.13
2023-01-28T20:33:15.888Z,19.08
2023-01-28T20:35:42.161Z,19.02
2023-01-28T20:38:08.546Z,18.97
2023-01-28T20:40:34.879Z,18.92
2023-01-28T20:43:03.282Z,18.84
2023-01-28T20:45:29.496Z,18.79
2023-01-28T20:47:55.710Z,18.75
2023-01-28T20:50:22.205Z,18.70
2023-01-28T20:52:48.962Z,18.66
2023-01-28T20:55:15.740Z,18.63
2023-01-28T20:57:44.400Z,18.59
2023-01-28T21:00:10.997Z,18.55
2023-01-28T21:02:38.746Z,18.50
2023-01-28T21:05:05.938Z,18.46
2023-01-28T21:07:32.265Z,18.42
2023-01-28T21:10:02.437Z,18.37
2023-01-28T21:12:28.921Z,18.33
2023-01-28T21:14:55.114Z,18.30
2023-01-28T21:17:21.364Z,18.25
2023-01-28T21:19:47.571Z,18.21
2023-01-28T21:22:13.794Z,18.20
2023-01-28T21:24:40.001Z,18.18
2023-01-28T21:27:06.372Z,18.15
2023-01-28T21:29:33.156Z,18.13
2023-01-28T21:32:00.306Z,18.12
2023-01-28T21:34:26.973Z,18.10
2023-01-28T21:36:53.224Z,18.07
2023-01-28T21:39:19.625Z,18.06
2023-01-28T21:41:50.738Z,18.04
2023-01-28T21:44:17.213Z,18.01
2023-01-28T21:46:43.488Z,17.98
2023-01-28T21:49:09.777Z,17.95
2023-01-28T21:51:36.713Z,17.92
2023-01-28T21:54:03.747Z,17.87
2023-01-28T21:56:30.563Z,17.84
2023-01-28T21:58:56.767Z,17.80
2023-01-28T22:01:23.608Z,17.77
2023-01-28T22:03:49.964Z,17.74
2023-01-28T22:06:16.715Z,17.70
2023-01-28T22:08:43.018Z,17.68
2023-01-28T22:11:09.225Z,17.64
2023-01-28T22:13:35.528Z,17.61
2023-01-28T22:16:01.801Z,17.58
2023-01-28T22:18:28.332Z,17.55
2023-01-28T22:20:54.555Z,17.51
2023-01-28T22:23:20.767Z,17.48
2023-01-28T22:25:47.038Z,17.45
2023-01-28T22:28:13.591Z,17.43
2023-01-28T22:30:39.838Z,17.41
2023-01-28T22:33:06.173Z,17.38
2023-01-28T22:35:32.552Z,17.36
2023-01-28T22:37:58.811Z,17.33
2023-01-28T22:40:25.010Z,17.29
2023-01-28T22:42:51.381Z,17.27
2023-01-28T22:45:19.672Z,17.23
2023-01-28T22:47:45.929Z,17.20
2023-01-28T22:50:12.130Z,17.18
2023-01-28T22:52:38.888Z,17.15
2023-01-28T22:55:05.075Z,17.12
2023-01-28T22:57:34.253Z,17.11
2023-01-28T23:00:01.016Z,17.08
2023-01-28T23:02:27.398Z,17.05
2023-01-28T23:04:53.745Z,17.03
2023-01-28T23:07:19.942Z,17.01
2023-01-28T23:09:46.136Z,16.99
2023-01-28T23:12:13.176Z,16.98
2023-01-28T23:14:39.377Z,16.96
2023-01-28T23:17:05.713Z,16.95
2023-01-28T23:19:31.963Z,16.92
2023-01-28T23:21:58.481Z,16.89
2023-01-28T23:24:24.859Z,16.87
2023-01-28T23:26:53.172Z,16.84
2023-01-28T23:29:19.367Z,16.82
2023-01-28T23:31:49.940Z,16.81
2023-01-28T23:34:16.283Z,16.80
2023-01-28T23:36:43.670Z,16.78
2023-01-28T23:39:10.014Z,16.76
2023-01-28T23:41:36.463Z,16.76
2023-01-28T23:44:03.606Z,16.75
2023-01-28T23:49:15.019Z,16.56
2023-01-28T23:51:41.367Z,16.40
2023-01-28T23:54:08.767Z,16.25
2023-01-28T23:56:35.567Z,16.09
2023-01-28T23:59:02.354Z,15.91
